International Virtual Aviation Organisation

Russian Federation and Kazakhstan MCD

 

Карточка аэропорта UACC

Внимание!
Информация на этой странице в стадии наполнения.
Если вы не увидели какой-то информации, или заметили неточность - пожалуйста сообщите нам!
Спасибо!
Команда RU-STAFF
Название аэропортаНур-Султан
Название аэропорта (англ.)Nur-Sultan
Превышение1165 ft. (355.1 m.)
Координаты51°1.3319999999999', 71°28.014'
Высота перехода10000
Эшелон переходаby ATC
Коды ответчика0601-0627, 7201-7217
Зона ОрВДНур-Султан РПИ (UACN)
Данные METARUACC 060730Z 22014MPS 9999 BKN040 M03/M05 Q1014 R22/95//45 NOSIG RMK QFE729/0972
Проноз погоды (TAF)UACC 060503Z 0606/0706 22014MPS 6000 DRSN SCT011 BKN030 TXM03/0609Z TNM06/0703Z TEMPO 0606/0613 23014G19MPS 2000 -SN BLSN BKN015 BECMG 0613/0615 22010MPS TEMPO 0613/0618 23009G14MPS 2000 -SN BLSN SCT008 BKN015 BECMG 0618/0620 21006MPS TEMPO 0618/0703 23008MPS 1500 SN BLSN SCT008 BKN015
NOTAMshow/hide NOTAM
AWOS   TABLE

Информация о ВПП

ВПП Длина ВПП (м.) Покрытие Курс ВПП Частота ILS
043500Асфальтобетон35109.5
223500Асфальтобетон215111.7

Диспетчерские позиции

Позывной Наименование органа УВД Частота
UACC_APPНур-Султан Подход124.6
UACC_R_APPНур-Султан Круг120.7
UACC_TWRНур-Султан Вышка118.7
UACC_GNDНур-Султан Руление119.6



Спутниковое изображение